createdAt,value
2023-04-13T00:01:11.056Z,13.10
2023-04-13T00:03:40.568Z,12.53
2023-04-13T00:06:10.836Z,11.33
2023-04-13T00:08:42.688Z,11.00
2023-04-13T00:11:10.922Z,11.27
2023-04-13T00:13:41.199Z,11.30
2023-04-13T00:16:11.081Z,9.67
2023-04-13T00:18:40.885Z,9.73
2023-04-13T00:21:09.393Z,8.97
2023-04-13T00:23:37.252Z,8.27
2023-04-13T00:26:05.534Z,7.57
2023-04-13T00:28:33.737Z,7.33
2023-04-13T00:31:01.879Z,7.00
2023-04-13T00:33:29.743Z,6.87
2023-04-13T00:36:01.021Z,7.20
2023-04-13T00:38:29.757Z,7.00
2023-04-13T00:40:57.576Z,6.70
2023-04-13T00:43:26.147Z,6.80
2023-04-13T00:45:54.147Z,7.00
2023-04-13T00:48:23.369Z,6.63
2023-04-13T00:50:51.235Z,6.30
2023-04-13T00:53:20.986Z,6.23
2023-04-13T00:55:48.971Z,6.07
2023-04-13T00:58:17.455Z,6.07
2023-04-13T01:00:45.369Z,6.00
2023-04-13T01:03:13.556Z,5.63
2023-04-13T01:05:50.301Z,5.17
2023-04-13T01:08:30.874Z,5.03
2023-04-13T01:11:04.245Z,5.60
2023-04-13T01:13:38.542Z,4.93
2023-04-13T01:16:16.897Z,5.17
2023-04-13T01:18:49.861Z,5.13
2023-04-13T01:21:21.696Z,5.03
2023-04-13T01:24:01.272Z,5.17
2023-04-13T01:26:37.645Z,4.93
2023-04-13T01:29:07.458Z,5.20
2023-04-13T01:31:36.109Z,5.40
2023-04-13T01:34:04.850Z,4.70
2023-04-13T01:36:34.100Z,4.70
2023-04-13T01:39:02.412Z,5.10
2023-04-13T01:41:32.485Z,4.37
2023-04-13T01:44:00.559Z,4.57
2023-04-13T01:46:35.023Z,4.43
2023-04-13T01:49:11.940Z,4.90
2023-04-13T01:51:51.263Z,4.90
2023-04-13T01:54:27.225Z,5.10
2023-04-13T01:57:00.023Z,5.43
2023-04-13T01:59:28.094Z,4.90
2023-04-13T02:01:58.563Z,4.80
2023-04-13T02:04:26.593Z,5.27
2023-04-13T02:06:54.655Z,5.27
2023-04-13T02:09:29.148Z,5.60
2023-04-13T02:11:57.004Z,6.20
2023-04-13T02:14:25.088Z,6.17
2023-04-13T02:16:54.717Z,5.90
2023-04-13T02:19:24.641Z,6.43
2023-04-13T02:21:53.201Z,6.27
2023-04-13T02:24:21.643Z,6.43
2023-04-13T02:26:49.599Z,6.53
2023-04-13T02:29:17.477Z,7.07
2023-04-13T02:31:46.452Z,7.03
2023-04-13T02:34:14.686Z,6.63
2023-04-13T02:36:45.203Z,6.60
2023-04-13T02:39:13.360Z,6.93
2023-04-13T02:41:42.756Z,6.60
2023-04-13T02:44:13.493Z,6.87
2023-04-13T02:46:51.287Z,6.50
2023-04-13T02:49:19.664Z,7.53
2023-04-13T02:52:13.063Z,7.20
2023-04-13T02:54:55.188Z,7.67
2023-04-13T02:57:27.463Z,7.33
2023-04-13T02:59:57.605Z,7.60
2023-04-13T03:02:29.943Z,7.60
2023-04-13T03:04:59.359Z,7.13
2023-04-13T03:07:32.884Z,7.10
2023-04-13T03:10:02.403Z,7.57
2023-04-13T03:12:31.163Z,7.63
2023-04-13T03:15:02.879Z,7.47
2023-04-13T03:17:32.068Z,7.80
2023-04-13T03:20:00.646Z,7.67
2023-04-13T03:22:30.538Z,7.70
2023-04-13T03:25:04.691Z,7.73
2023-04-13T03:27:37.879Z,7.80
2023-04-13T03:30:07.380Z,7.83
2023-04-13T03:32:42.927Z,8.13
2023-04-13T03:35:11.297Z,7.90
2023-04-13T03:37:42.747Z,7.50
2023-04-13T03:40:33.849Z,8.60
2023-04-13T03:43:02.121Z,8.07
2023-04-13T03:45:33.644Z,8.33
2023-04-13T03:48:05.873Z,8.27
2023-04-13T03:50:33.879Z,8.13
2023-04-13T03:53:02.309Z,8.23
2023-04-13T03:55:30.492Z,8.13
2023-04-13T03:58:05.946Z,7.60
2023-04-13T04:00:36.142Z,7.93
2023-04-13T04:03:18.180Z,8.40
2023-04-13T04:05:53.636Z,8.30
2023-04-13T04:08:22.111Z,9.03
2023-04-13T04:10:53.010Z,8.10
2023-04-13T04:13:23.560Z,8.83
2023-04-13T04:15:54.871Z,8.63
2023-04-13T04:18:22.997Z,7.87
2023-04-13T04:20:50.923Z,9.10
2023-04-13T04:23:19.941Z,8.67
2023-04-13T04:25:59.320Z,9.30
2023-04-13T04:28:38.389Z,9.33
2023-04-13T04:31:10.660Z,9.67
2023-04-13T04:33:40.177Z,10.57
2023-04-13T04:36:13.902Z,9.50
2023-04-13T04:38:57.874Z,9.87
2023-04-13T04:41:26.918Z,9.53
2023-04-13T04:44:03.250Z,9.43
2023-04-13T04:46:38.661Z,10.00
2023-04-13T04:49:11.242Z,9.57
2023-04-13T04:51:40.279Z,10.43
2023-04-13T04:54:08.169Z,9.50
2023-04-13T04:56:36.296Z,10.17
2023-04-13T04:59:05.588Z,9.80
2023-04-13T05:01:44.121Z,10.07
2023-04-13T05:04:14.335Z,8.70
2023-04-13T05:06:44.671Z,10.37
2023-04-13T05:09:17.545Z,9.80
2023-04-13T05:11:49.224Z,10.03
2023-04-13T05:14:21.004Z,9.90
2023-04-13T05:16:49.670Z,10.00
2023-04-13T05:19:25.052Z,10.27
2023-04-13T05:22:07.793Z,10.27
2023-04-13T05:24:42.184Z,9.53
2023-04-13T05:27:13.510Z,9.37
2023-04-13T05:29:45.579Z,10.20
2023-04-13T05:32:17.425Z,10.20
2023-04-13T05:34:47.361Z,9.63
2023-04-13T05:37:21.450Z,9.53
2023-04-13T05:39:49.997Z,10.10
2023-04-13T05:42:21.283Z,10.20
2023-04-13T05:44:50.568Z,9.97
2023-04-13T05:47:22.822Z,9.70
2023-04-13T05:49:54.753Z,9.70
2023-04-13T05:52:23.975Z,9.77
2023-04-13T05:54:53.768Z,9.77
2023-04-13T05:57:22.582Z,9.60
2023-04-13T05:59:54.291Z,9.97
2023-04-13T06:02:27.056Z,9.60
2023-04-13T06:04:56.396Z,9.73
2023-04-13T06:07:25.939Z,8.70
2023-04-13T06:09:53.835Z,8.97
2023-04-13T06:12:23.925Z,9.23
2023-04-13T06:14:55.002Z,9.30
2023-04-13T06:17:22.910Z,8.60
2023-04-13T06:19:51.626Z,8.57
2023-04-13T06:22:19.483Z,8.30
2023-04-13T06:24:47.339Z,8.10
2023-04-13T06:27:15.591Z,7.40
2023-04-13T06:29:46.824Z,7.07
2023-04-13T06:32:16.733Z,7.57
2023-04-13T06:34:45.704Z,7.40
2023-04-13T06:37:14.107Z,6.60
2023-04-13T06:39:47.400Z,6.57
2023-04-13T06:42:16.212Z,6.30
2023-04-13T06:45:01.592Z,5.77
2023-04-13T06:47:40.607Z,5.80
2023-04-13T06:50:13.804Z,5.50
2023-04-13T06:52:44.269Z,5.17
2023-04-13T06:55:12.467Z,4.87
2023-04-13T06:57:42.317Z,4.50
2023-04-13T07:00:28.328Z,4.23
2023-04-13T07:02:59.794Z,4.10
2023-04-13T07:05:28.152Z,3.87
2023-04-13T07:08:01.247Z,4.30
2023-04-13T07:10:29.903Z,3.53
2023-04-13T07:13:02.974Z,3.33
2023-04-13T07:15:32.813Z,3.30
2023-04-13T07:18:03.022Z,3.30
2023-04-13T07:20:31.051Z,3.27
2023-04-13T07:22:59.027Z,3.17
2023-04-13T07:25:27.067Z,3.03
2023-04-13T07:27:55.256Z,2.70
2023-04-13T07:30:24.469Z,2.90
2023-04-13T07:32:52.549Z,2.90
2023-04-13T07:35:23.042Z,2.47
2023-04-13T07:37:53.283Z,2.30
2023-04-13T07:40:23.018Z,2.30
2023-04-13T07:42:55.715Z,2.30
2023-04-13T07:45:23.750Z,2.00
2023-04-13T07:47:53.394Z,2.00
2023-04-13T07:50:23.031Z,1.90
2023-04-13T07:52:52.904Z,1.97
2023-04-13T07:55:23.819Z,1.90
2023-04-13T07:57:53.054Z,1.50
2023-04-13T08:00:22.812Z,1.50
2023-04-13T08:02:55.994Z,1.40
2023-04-13T08:05:27.319Z,1.47
2023-04-13T08:07:55.707Z,1.40
2023-04-13T08:10:23.913Z,1.43
2023-04-13T08:12:55.961Z,1.30
2023-04-13T08:15:24.842Z,1.60
2023-04-13T08:17:53.786Z,1.27
2023-04-13T08:20:22.864Z,1.40
2023-04-13T08:22:54.093Z,1.50
2023-04-13T08:25:22.409Z,1.30
2023-04-13T08:27:50.469Z,1.20
2023-04-13T08:30:19.824Z,1.50
2023-04-13T08:32:54.566Z,1.30
2023-04-13T08:35:24.261Z,1.30
2023-04-13T08:37:55.064Z,1.60
2023-04-13T08:40:23.309Z,1.70
2023-04-13T08:42:56.097Z,1.30
2023-04-13T08:45:24.730Z,1.40
2023-04-13T08:47:52.592Z,1.40
2023-04-13T08:50:26.043Z,1.40
2023-04-13T08:52:57.001Z,1.47
2023-04-13T08:55:27.301Z,1.13
2023-04-13T08:58:01.008Z,1.47
2023-04-13T09:00:31.103Z,1.50
2023-04-13T09:03:06.638Z,1.30
2023-04-13T09:05:42.863Z,1.40
2023-04-13T09:08:14.274Z,1.67
2023-04-13T09:10:46.011Z,1.50
2023-04-13T09:13:13.926Z,1.53
2023-04-13T09:15:42.712Z,1.40
2023-04-13T09:18:20.998Z,1.40
2023-04-13T09:20:58.498Z,1.40
2023-04-13T09:23:27.916Z,1.50
2023-04-13T09:26:07.591Z,1.63
2023-04-13T09:28:45.946Z,1.53
2023-04-13T09:31:15.508Z,1.50
2023-04-13T09:33:47.614Z,1.47
2023-04-13T09:36:17.349Z,1.53
2023-04-13T09:38:52.085Z,1.30
2023-04-13T09:41:31.770Z,1.40
2023-04-13T09:44:00.198Z,1.20
2023-04-13T09:46:29.560Z,1.43
2023-04-13T09:49:03.061Z,1.27
2023-04-13T09:51:38.328Z,1.40
2023-04-13T09:54:07.933Z,1.30
2023-04-13T09:56:44.935Z,1.63
2023-04-13T09:59:13.770Z,1.60
2023-04-13T10:01:42.269Z,1.43
2023-04-13T10:04:10.818Z,1.23
2023-04-13T10:06:40.250Z,1.30
2023-04-13T10:09:09.530Z,1.43
2023-04-13T10:11:40.697Z,1.37
2023-04-13T10:14:13.884Z,1.40
2023-04-13T10:17:05.850Z,1.40
2023-04-13T10:19:37.185Z,1.27
2023-04-13T10:22:08.916Z,1.40
2023-04-13T10:24:40.736Z,1.43
2023-04-13T10:27:12.516Z,1.30
2023-04-13T10:29:40.492Z,1.53
2023-04-13T10:32:08.548Z,1.30
2023-04-13T10:34:38.228Z,1.33
2023-04-13T10:37:16.807Z,1.37
2023-04-13T10:39:47.045Z,1.57
2023-04-13T10:42:17.691Z,1.30
2023-04-13T10:44:47.037Z,1.70
2023-04-13T10:47:16.485Z,1.60
2023-04-13T10:49:45.987Z,1.53
2023-04-13T10:52:16.148Z,1.40
2023-04-13T10:54:46.230Z,1.20
2023-04-13T10:57:16.579Z,1.50
2023-04-13T10:59:58.054Z,1.30
2023-04-13T11:02:32.444Z,1.50
2023-04-13T11:05:01.876Z,1.60
2023-04-13T11:07:29.848Z,1.40
2023-04-13T11:12:30.389Z,1.30
2023-04-13T11:14:58.243Z,1.70
2023-04-13T11:17:26.193Z,1.60
2023-04-13T11:19:55.797Z,1.53
2023-04-13T11:22:27.565Z,1.43
2023-04-13T11:25:09.049Z,1.47
2023-04-13T11:27:37.909Z,1.43
2023-04-13T11:30:07.526Z,1.50
2023-04-13T11:32:36.488Z,1.23
2023-04-13T11:35:09.120Z,1.37
2023-04-13T11:37:37.881Z,1.40
2023-04-13T11:40:16.674Z,1.50
2023-04-13T11:42:47.034Z,1.20
2023-04-13T11:45:16.140Z,1.50
2023-04-13T11:47:44.353Z,1.40
2023-04-13T11:50:15.642Z,1.30
2023-04-13T11:52:45.140Z,1.20
2023-04-13T11:55:23.201Z,1.30
2023-04-13T11:57:53.167Z,1.30
2023-04-13T12:00:25.837Z,1.20
2023-04-13T12:05:30.080Z,1.27
2023-04-13T12:07:59.266Z,1.30
2023-04-13T12:10:39.065Z,1.20
2023-04-13T12:15:58.140Z,1.47
2023-04-13T12:18:39.988Z,1.37
2023-04-13T12:21:08.429Z,1.30
2023-04-13T12:23:36.901Z,1.80
2023-04-13T12:28:38.801Z,1.80
2023-04-13T12:31:07.981Z,1.50
2023-04-13T12:33:35.903Z,1.80
2023-04-13T12:36:06.273Z,1.93
2023-04-13T12:38:34.484Z,1.60
2023-04-13T12:41:03.552Z,1.80
2023-04-13T12:43:32.790Z,1.63
2023-04-13T12:46:00.731Z,1.40
2023-04-13T12:48:29.432Z,1.80
2023-04-13T12:50:57.332Z,1.80
2023-04-13T12:53:25.159Z,1.80
2023-04-13T12:55:53.100Z,2.00
2023-04-13T12:58:20.946Z,1.90
2023-04-13T13:00:50.409Z,2.00
2023-04-13T13:03:18.389Z,2.10
2023-04-13T13:05:46.274Z,2.00
2023-04-13T13:08:14.149Z,2.10
2023-04-13T13:10:42.840Z,2.10
2023-04-13T13:13:11.205Z,2.50
2023-04-13T13:15:39.107Z,1.90
2023-04-13T13:18:10.588Z,2.10
2023-04-13T13:20:41.140Z,2.00
2023-04-13T13:23:10.918Z,2.17
2023-04-13T13:25:41.316Z,1.77
2023-04-13T13:28:15.436Z,2.03
2023-04-13T13:30:43.846Z,2.20
2023-04-13T13:33:13.080Z,1.80
2023-04-13T13:35:41.024Z,2.20
2023-04-13T13:38:08.941Z,1.80
2023-04-13T13:40:36.736Z,1.90
2023-04-13T13:43:05.218Z,2.33
2023-04-13T13:45:33.060Z,1.93
2023-04-13T13:48:03.047Z,1.90
2023-04-13T13:50:43.073Z,2.23
2023-04-13T13:53:11.593Z,2.47
2023-04-13T13:55:42.572Z,2.87
2023-04-13T13:58:10.716Z,2.40
2023-04-13T14:00:39.702Z,2.83
2023-04-13T14:03:07.941Z,2.40
2023-04-13T14:05:37.248Z,2.70
2023-04-13T14:08:07.001Z,3.03
2023-04-13T14:10:36.269Z,3.17
2023-04-13T14:13:04.210Z,3.13
2023-04-13T14:15:32.149Z,2.80
2023-04-13T14:18:09.064Z,3.17
2023-04-13T14:20:40.158Z,3.10
2023-04-13T14:23:10.043Z,3.43
2023-04-13T14:25:40.938Z,3.43
2023-04-13T14:28:09.308Z,3.30
2023-04-13T14:30:37.556Z,3.30
2023-04-13T14:33:06.739Z,3.13
2023-04-13T14:35:35.378Z,3.30
2023-04-13T14:38:03.277Z,3.00
2023-04-13T14:40:32.672Z,3.40
2023-04-13T14:43:00.736Z,3.70
2023-04-13T14:45:28.742Z,3.13
2023-04-13T14:47:56.606Z,3.43
2023-04-13T14:50:24.823Z,3.50
2023-04-13T14:52:53.148Z,3.47
2023-04-13T14:55:21.505Z,3.33
2023-04-13T14:57:51.039Z,3.20
2023-04-13T15:00:21.684Z,3.30
2023-04-13T15:02:51.105Z,1.83
2023-04-13T15:05:19.715Z,2.10
2023-04-13T15:07:48.397Z,1.70
2023-04-13T15:10:17.585Z,1.60
2023-04-13T15:12:45.461Z,1.77
2023-04-13T15:15:14.750Z,1.37
2023-04-13T15:17:42.557Z,1.90
2023-04-13T15:20:11.908Z,2.00
2023-04-13T15:22:39.787Z,1.90
2023-04-13T15:25:08.412Z,2.00
2023-04-13T15:27:36.430Z,1.80
2023-04-13T15:30:04.684Z,1.80
2023-04-13T15:32:36.054Z,1.60
2023-04-13T15:35:04.265Z,1.80
2023-04-13T15:37:32.129Z,1.53
2023-04-13T15:40:00.737Z,1.93
2023-04-13T15:42:28.702Z,1.60
2023-04-13T15:44:56.623Z,1.70
2023-04-13T15:47:24.578Z,1.80
2023-04-13T15:49:53.853Z,1.43
2023-04-13T15:52:22.761Z,1.60
2023-04-13T15:54:50.784Z,1.37
2023-04-13T15:57:18.684Z,1.30
2023-04-13T15:59:46.676Z,1.40
2023-04-13T16:02:14.658Z,1.50
2023-04-13T16:04:42.794Z,1.63
2023-04-13T16:07:14.576Z,2.00
2023-04-13T16:09:44.790Z,1.97
2023-04-13T16:12:13.062Z,1.80
2023-04-13T16:14:42.066Z,2.37
2023-04-13T16:17:10.417Z,2.17
2023-04-13T16:19:39.536Z,2.70
2023-04-13T16:22:10.379Z,2.60
2023-04-13T16:24:40.984Z,2.70
2023-04-13T16:27:10.066Z,2.20
2023-04-13T16:29:37.930Z,2.37
2023-04-13T16:32:06.193Z,2.70
2023-04-13T16:34:33.992Z,2.37
2023-04-13T16:37:02.000Z,2.83
2023-04-13T16:39:29.873Z,3.10
2023-04-13T16:41:59.055Z,3.07
2023-04-13T16:44:26.838Z,2.97
2023-04-13T16:46:56.442Z,2.90
2023-04-13T16:49:24.256Z,3.17
2023-04-13T16:51:52.191Z,2.80
2023-04-13T16:54:21.071Z,3.53
2023-04-13T16:56:48.980Z,2.90
2023-04-13T16:59:18.112Z,2.77
2023-04-13T17:01:46.455Z,3.00
2023-04-13T17:04:14.353Z,3.03
2023-04-13T17:06:43.776Z,3.27
2023-04-13T17:09:11.563Z,2.73
2023-04-13T17:11:39.438Z,2.77
2023-04-13T17:14:07.233Z,2.70
2023-04-13T17:16:36.444Z,2.73
2023-04-13T17:19:04.301Z,2.67
2023-04-13T17:21:32.139Z,2.17
2023-04-13T17:23:59.899Z,2.50
2023-04-13T17:26:27.757Z,2.50
2023-04-13T17:28:55.910Z,3.80
2023-04-13T17:31:24.709Z,3.90
2023-04-13T17:33:53.936Z,2.70
2023-04-13T17:36:22.588Z,1.20
2023-04-13T17:38:50.467Z,0.90
2023-04-13T17:41:18.585Z,1.13
2023-04-13T17:43:46.382Z,1.00
2023-04-13T17:46:14.307Z,1.00
2023-04-13T17:48:42.200Z,0.90
2023-04-13T17:51:11.844Z,0.80
2023-04-13T17:53:39.799Z,1.00
2023-04-13T17:56:09.101Z,1.23
2023-04-13T17:58:37.093Z,1.10
2023-04-13T18:01:08.900Z,1.20
2023-04-13T18:03:37.326Z,1.10
2023-04-13T18:06:06.462Z,1.03
2023-04-13T18:08:35.843Z,1.13
2023-04-13T18:11:03.949Z,1.00
2023-04-13T18:13:32.258Z,1.83
2023-04-13T18:16:00.196Z,1.70
2023-04-13T18:18:28.103Z,1.20
2023-04-13T18:20:56.085Z,1.10
2023-04-13T18:23:24.178Z,1.10
2023-04-13T18:25:53.663Z,1.50
2023-04-13T18:28:21.515Z,1.30
2023-04-13T18:30:49.383Z,1.60
2023-04-13T18:33:17.311Z,1.27
2023-04-13T18:35:46.189Z,1.50
2023-04-13T18:38:14.148Z,1.90
2023-04-13T18:40:43.261Z,2.20
2023-04-13T18:43:12.588Z,4.07
2023-04-13T18:45:40.582Z,2.60
2023-04-13T18:48:09.652Z,2.50
2023-04-13T18:50:38.651Z,2.97
2023-04-13T18:53:06.672Z,3.23
2023-04-13T18:55:35.122Z,3.20
2023-04-13T18:58:02.983Z,4.40
2023-04-13T19:00:32.505Z,12.77
2023-04-13T19:03:01.048Z,12.60
2023-04-13T19:05:29.165Z,12.87
2023-04-13T19:07:59.094Z,14.07
2023-04-13T19:10:27.890Z,13.80
2023-04-13T19:12:56.494Z,11.33
2023-04-13T19:15:24.632Z,5.00
2023-04-13T19:17:54.141Z,4.20
2023-04-13T19:20:23.646Z,3.50
2023-04-13T19:22:52.474Z,2.70
2023-04-13T19:25:20.652Z,2.60
2023-04-13T19:27:49.966Z,3.00
2023-04-13T19:30:19.010Z,3.00
2023-04-13T19:32:48.838Z,2.97
2023-04-13T19:35:18.485Z,2.73
2023-04-13T19:37:46.470Z,3.30
2023-04-13T19:40:15.410Z,4.93
2023-04-13T19:42:44.850Z,3.70
2023-04-13T19:45:13.694Z,4.10
2023-04-13T19:47:42.158Z,3.83
2023-04-13T19:50:12.213Z,3.90
2023-04-13T19:52:42.574Z,3.60
2023-04-13T19:55:11.938Z,2.63
2023-04-13T19:57:42.759Z,2.20
2023-04-13T20:00:19.859Z,2.53
2023-04-13T20:02:49.529Z,2.80
2023-04-13T20:05:18.627Z,2.40
2023-04-13T20:07:47.969Z,2.47
2023-04-13T20:10:15.903Z,2.47
2023-04-13T20:12:43.702Z,2.60
2023-04-13T20:15:11.945Z,2.30
2023-04-13T20:17:39.820Z,2.30
2023-04-13T20:20:10.613Z,2.50
2023-04-13T20:22:39.226Z,2.63
2023-04-13T20:25:10.000Z,2.60
2023-04-13T20:27:41.792Z,3.37
2023-04-13T20:30:10.822Z,3.97
2023-04-13T20:32:38.779Z,3.70
2023-04-13T20:35:07.971Z,3.60
2023-04-13T20:37:35.805Z,3.40
2023-04-13T20:40:06.713Z,2.57
2023-04-13T20:42:35.988Z,2.37
2023-04-13T20:45:04.557Z,2.90
2023-04-13T20:47:32.498Z,3.67
2023-04-13T20:50:00.729Z,3.33
2023-04-13T20:52:29.824Z,3.43
2023-04-13T20:54:58.204Z,2.87
2023-04-13T20:57:26.280Z,3.30
2023-04-13T20:59:55.624Z,3.30
2023-04-13T21:02:23.647Z,3.33
2023-04-13T21:04:53.816Z,3.40
2023-04-13T21:07:22.201Z,3.10
2023-04-13T21:09:50.073Z,3.67
2023-04-13T21:12:17.935Z,3.70
2023-04-13T21:14:45.806Z,3.67
2023-04-13T21:17:15.141Z,3.37
2023-04-13T21:19:43.053Z,3.60
2023-04-13T21:22:10.945Z,3.50
2023-04-13T21:24:38.961Z,3.83
2023-04-13T21:27:06.767Z,3.30
2023-04-13T21:29:34.748Z,3.13
2023-04-13T21:32:03.177Z,3.37
2023-04-13T21:34:32.397Z,3.80
2023-04-13T21:37:02.409Z,3.30
2023-04-13T21:39:31.155Z,3.50
2023-04-13T21:41:58.960Z,3.73
2023-04-13T21:44:29.807Z,3.30
2023-04-13T21:46:58.628Z,3.10
2023-04-13T21:49:27.058Z,3.03
2023-04-13T21:51:56.306Z,3.20
2023-04-13T21:54:24.160Z,3.13
2023-04-13T21:56:52.045Z,3.00
2023-04-13T21:59:19.818Z,2.87
2023-04-13T22:01:47.850Z,3.00
2023-04-13T22:04:15.850Z,3.20
2023-04-13T22:06:43.814Z,3.27
2023-04-13T22:09:13.284Z,4.33
2023-04-13T22:11:41.353Z,4.20
2023-04-13T22:14:09.449Z,3.30
2023-04-13T22:16:37.341Z,2.60
2023-04-13T22:19:05.172Z,2.43
2023-04-13T22:21:35.729Z,2.53
2023-04-13T22:24:03.809Z,2.50
2023-04-13T22:26:32.938Z,2.43
2023-04-13T22:29:01.004Z,2.87
2023-04-13T22:31:29.093Z,2.93
2023-04-13T22:33:57.366Z,3.00
2023-04-13T22:36:25.355Z,2.47
2023-04-13T22:38:54.671Z,2.80
2023-04-13T22:41:22.498Z,2.83
2023-04-13T22:43:51.657Z,2.53
2023-04-13T22:46:19.498Z,2.47
2023-04-13T22:48:48.201Z,2.60
2023-04-13T22:51:16.217Z,2.60
2023-04-13T22:53:44.101Z,2.57
2023-04-13T22:56:12.376Z,2.83
2023-04-13T22:58:40.248Z,3.10
2023-04-13T23:01:09.401Z,2.80
2023-04-13T23:03:37.521Z,2.83
2023-04-13T23:06:06.013Z,2.50
2023-04-13T23:08:34.028Z,2.67
2023-04-13T23:11:08.754Z,2.90
2023-04-13T23:13:36.724Z,3.00
2023-04-13T23:16:05.832Z,3.20
2023-04-13T23:18:35.171Z,2.70
2023-04-13T23:21:10.559Z,3.00
2023-04-13T23:23:39.641Z,2.80
2023-04-13T23:26:07.569Z,3.20
2023-04-13T23:28:35.524Z,3.03
2023-04-13T23:31:04.512Z,3.20
2023-04-13T23:33:32.460Z,3.33
2023-04-13T23:36:02.266Z,3.00
2023-04-13T23:38:30.689Z,3.03
2023-04-13T23:40:58.798Z,3.23
2023-04-13T23:43:26.968Z,3.20
2023-04-13T23:45:55.146Z,2.80
2023-04-13T23:48:24.490Z,2.90
2023-04-13T23:50:52.510Z,3.10
2023-04-13T23:53:21.836Z,3.00
2023-04-13T23:55:49.639Z,3.00
2023-04-13T23:58:17.552Z,3.50
